createdAt,value
2019-04-07T00:00:01.245Z,7.88
2019-04-07T00:01:01.241Z,7.93
2019-04-07T00:02:01.284Z,8
2019-04-07T00:03:01.391Z,7.91
2019-04-07T00:04:05.411Z,7.88
2019-04-07T00:05:15.034Z,7.9
2019-04-07T00:06:01.421Z,7.91
2019-04-07T00:07:01.463Z,7.79
2019-04-07T00:08:01.851Z,7.83
2019-04-07T00:09:01.857Z,7.79
2019-04-07T00:10:01.942Z,7.79
2019-04-07T00:11:01.505Z,7.75
2019-04-07T00:12:01.269Z,7.75
2019-04-07T00:13:01.325Z,7.73
2019-04-07T00:14:01.251Z,7.75
2019-04-07T00:15:01.260Z,7.69
2019-04-07T00:16:02.156Z,7.74
2019-04-07T00:17:01.942Z,7.68
2019-04-07T00:18:01.195Z,7.72
2019-04-07T00:19:01.766Z,7.68
2019-04-07T00:20:01.279Z,7.68
2019-04-07T00:21:01.683Z,7.64
2019-04-07T00:22:01.204Z,7.73
2019-04-07T00:23:01.236Z,7.71
2019-04-07T00:24:02.624Z,7.7
2019-04-07T00:25:02.701Z,7.91
2019-04-07T00:26:02.389Z,7.91
2019-04-07T00:27:01.526Z,7.89
2019-04-07T00:28:01.218Z,7.88
2019-04-07T00:29:01.832Z,7.82
2019-04-07T00:30:02.298Z,7.81
2019-04-07T00:31:02.632Z,7.83
2019-04-07T00:32:01.241Z,7.88
2019-04-07T00:33:02.001Z,7.83
2019-04-07T00:34:01.758Z,7.9
2019-04-07T00:35:01.210Z,7.87
2019-04-07T00:36:01.210Z,7.88
2019-04-07T00:37:01.267Z,7.76
2019-04-07T00:38:02.352Z,7.82
2019-04-07T00:39:01.694Z,7.79
2019-04-07T00:40:01.231Z,7.65
2019-04-07T00:41:01.567Z,7.8
2019-04-07T00:42:01.974Z,7.73
2019-04-07T00:43:01.189Z,7.63
2019-04-07T00:44:01.743Z,7.72
2019-04-07T00:45:02.133Z,7.65
2019-04-07T00:46:01.494Z,7.64
2019-04-07T00:47:01.159Z,7.64
2019-04-07T00:48:01.516Z,7.63
2019-04-07T00:49:03.058Z,7.54
2019-04-07T00:50:01.634Z,7.56
2019-04-07T00:51:01.626Z,7.48
2019-04-07T00:52:01.373Z,7.48
2019-04-07T00:53:01.425Z,7.48
2019-04-07T00:54:01.930Z,7.51
2019-04-07T00:55:02.403Z,7.51
2019-04-07T00:56:01.429Z,7.51
2019-04-07T00:57:01.178Z,7.47
2019-04-07T00:58:01.224Z,7.65
2019-04-07T00:59:02.958Z,7.58
2019-04-07T01:00:01.875Z,7.55
2019-04-07T01:01:01.166Z,7.45
2019-04-07T01:02:01.596Z,7.42
2019-04-07T01:03:02.078Z,7.38
2019-04-07T01:04:01.284Z,7.38
2019-04-07T01:05:02.669Z,7.35
2019-04-07T01:06:01.325Z,7.35
2019-04-07T01:07:01.156Z,7.33
2019-04-07T01:08:01.889Z,7.37
2019-04-07T01:09:01.923Z,7.35
2019-04-07T01:10:03.674Z,7.31
2019-04-07T01:11:01.498Z,7.3
2019-04-07T01:12:01.286Z,7.34
2019-04-07T01:13:01.190Z,7.4
2019-04-07T01:14:01.723Z,7.38
2019-04-07T01:15:01.164Z,7.31
2019-04-07T01:16:01.512Z,7.27
2019-04-07T01:17:01.189Z,7.24
2019-04-07T01:18:01.270Z,7.23
2019-04-07T01:19:01.121Z,7.22
2019-04-07T01:20:01.308Z,7.23
2019-04-07T01:21:02.350Z,7.15
2019-04-07T01:22:01.298Z,7.16
2019-04-07T01:23:03.019Z,7.14
2019-04-07T01:24:01.176Z,7.16
2019-04-07T01:25:01.213Z,7.11
2019-04-07T01:26:01.156Z,7.1
2019-04-07T01:27:01.115Z,7.1
2019-04-07T01:28:01.125Z,7.11
2019-04-07T01:29:01.624Z,7.12
2019-04-07T01:30:02.098Z,7.09
2019-04-07T01:31:01.150Z,7.13
2019-04-07T01:32:01.132Z,7.2
2019-04-07T01:33:01.124Z,7.15
2019-04-07T01:34:01.174Z,7.09
2019-04-07T01:35:01.457Z,7.05
2019-04-07T01:36:01.138Z,7.05
2019-04-07T01:37:01.206Z,7.14
2019-04-07T01:38:01.713Z,7
2019-04-07T01:39:01.687Z,6.98
2019-04-07T01:40:03.252Z,7.04
2019-04-07T01:41:01.134Z,7.05
2019-04-07T01:42:01.812Z,6.99
2019-04-07T01:43:01.216Z,6.9
2019-04-07T01:44:01.145Z,6.96
2019-04-07T01:45:01.773Z,6.93
2019-04-07T01:46:01.329Z,6.84
2019-04-07T01:47:01.520Z,6.83
2019-04-07T01:48:01.218Z,6.84
2019-04-07T01:49:01.202Z,6.85
2019-04-07T01:50:01.103Z,6.85
2019-04-07T01:51:01.616Z,6.79
2019-04-07T01:52:01.146Z,6.91
2019-04-07T01:53:01.119Z,6.94
2019-04-07T01:54:01.074Z,6.98
2019-04-07T01:55:01.129Z,6.86
2019-04-07T01:56:01.935Z,6.81
2019-04-07T01:57:01.542Z,6.73
2019-04-07T01:58:01.088Z,6.79
2019-04-07T01:59:01.725Z,6.78
2019-04-07T02:00:02.103Z,6.75
2019-04-07T02:01:01.100Z,6.78
2019-04-07T02:02:02.237Z,6.73
2019-04-07T02:03:01.144Z,6.7
2019-04-07T02:04:01.886Z,6.77
2019-04-07T02:05:01.077Z,6.74
2019-04-07T02:06:06.998Z,6.72
2019-04-07T02:07:01.770Z,6.72
2019-04-07T02:08:01.468Z,6.66
2019-04-07T02:09:02.029Z,6.65
2019-04-07T02:10:01.106Z,6.68
2019-04-07T02:11:01.469Z,6.65
2019-04-07T02:12:03.401Z,6.73
2019-04-07T02:13:01.278Z,6.75
2019-04-07T02:14:01.138Z,6.77
2019-04-07T02:15:01.146Z,6.74
2019-04-07T02:16:01.044Z,6.71
2019-04-07T02:17:01.675Z,6.61
2019-04-07T02:18:01.058Z,6.69
2019-04-07T02:19:01.086Z,6.68
2019-04-07T02:20:01.482Z,6.69
2019-04-07T02:21:01.025Z,6.61
2019-04-07T02:22:01.048Z,6.6
2019-04-07T02:23:01.037Z,6.57
2019-04-07T02:24:03.828Z,6.5
2019-04-07T02:25:01.891Z,6.54
2019-04-07T02:26:01.057Z,6.54
2019-04-07T02:27:01.072Z,6.53
2019-04-07T02:28:01.264Z,6.56
2019-04-07T02:29:01.725Z,6.51
2019-04-07T02:30:01.027Z,6.49
2019-04-07T02:31:01.167Z,6.46
2019-04-07T02:32:01.740Z,6.42
2019-04-07T02:33:02.454Z,6.47
2019-04-07T02:34:01.051Z,6.47
2019-04-07T02:35:01.955Z,6.47
2019-04-07T02:36:32.007Z,6.46
2019-04-07T02:37:01.078Z,6.4
2019-04-07T02:38:02.466Z,6.37
2019-04-07T02:39:01.250Z,6.44
2019-04-07T02:40:05.422Z,6.4
2019-04-07T02:41:02.096Z,6.46
2019-04-07T02:42:01.099Z,6.51
2019-04-07T02:43:03.375Z,6.48
2019-04-07T02:44:03.021Z,6.43
2019-04-07T02:45:01.691Z,6.47
2019-04-07T02:46:01.058Z,6.46
2019-04-07T02:47:01.061Z,6.42
2019-04-07T02:48:01.542Z,6.45
2019-04-07T02:49:02.048Z,6.41
2019-04-07T02:50:03.669Z,6.46
2019-04-07T02:51:01.472Z,6.48
2019-04-07T02:52:01.041Z,6.48
2019-04-07T02:53:02.969Z,6.39
2019-04-07T02:54:01.019Z,6.32
2019-04-07T02:55:02.810Z,6.31
2019-04-07T02:56:03.313Z,6.28
2019-04-07T02:57:01.012Z,6.3
2019-04-07T02:58:03.071Z,6.34
2019-04-07T02:59:02.050Z,6.28
2019-04-07T03:00:01.402Z,6.22
2019-04-07T03:01:02.250Z,6.22
2019-04-07T03:02:01.273Z,6.19
2019-04-07T03:03:01.897Z,6.27
2019-04-07T03:04:05.224Z,6.35
2019-04-07T03:05:02.505Z,6.34
2019-04-07T03:06:02.221Z,6.36
2019-04-07T03:07:01.039Z,6.43
2019-04-07T03:08:01.855Z,6.52
2019-04-07T03:09:00.997Z,6.41
2019-04-07T03:10:01.083Z,6.39
2019-04-07T03:11:02.304Z,6.38
2019-04-07T03:12:05.332Z,6.35
2019-04-07T03:13:01.307Z,6.37
2019-04-07T03:14:00.998Z,6.34
2019-04-07T03:15:01.006Z,6.39
2019-04-07T03:16:02.309Z,6.41
2019-04-07T03:17:02.548Z,6.43
2019-04-07T03:18:01.097Z,6.5
2019-04-07T03:19:02.029Z,6.43
2019-04-07T03:20:00.984Z,6.48
2019-04-07T03:21:02.586Z,6.48
2019-04-07T03:22:01.329Z,6.44
2019-04-07T03:23:01.817Z,6.44
2019-04-07T03:24:00.997Z,6.43
2019-04-07T03:25:00.972Z,6.4
2019-04-07T03:26:02.439Z,6.39
2019-04-07T03:27:01.104Z,6.31
2019-04-07T03:28:01.380Z,6.33
2019-04-07T03:29:01.529Z,6.29
2019-04-07T03:30:04.433Z,6.32
2019-04-07T03:31:07.215Z,6.23
2019-04-07T03:32:11.977Z,6.21
2019-04-07T03:33:16.395Z,6.16
2019-04-07T03:34:06.744Z,6.18
2019-04-07T03:35:07.355Z,6.1
2019-04-07T03:36:17.412Z,6.12
2019-04-07T03:38:02.177Z,6.12
2019-04-07T03:39:03.648Z,6.1
2019-04-07T03:40:04.902Z,6.15
2019-04-07T03:41:00.961Z,6.15
2019-04-07T03:42:01.316Z,6.13
2019-04-07T03:43:01.811Z,6.17
2019-04-07T03:44:01.566Z,6.2
2019-04-07T03:45:01.401Z,6.24
2019-04-07T03:46:01.176Z,6.28
2019-04-07T03:47:01.750Z,6.27
2019-04-07T03:48:02.424Z,6.28
2019-04-07T03:49:02.151Z,6.27
2019-04-07T03:50:04.073Z,6.26
2019-04-07T03:51:01.759Z,6.27
2019-04-07T03:52:05.845Z,6.32
2019-04-07T03:53:03.127Z,6.3
2019-04-07T03:54:00.986Z,6.32
2019-04-07T03:55:01.594Z,6.34
2019-04-07T03:56:02.003Z,6.34
2019-04-07T03:57:01.041Z,6.31
2019-04-07T03:58:01.831Z,6.32
2019-04-07T03:59:00.957Z,6.34
2019-04-07T04:00:02.586Z,6.36
2019-04-07T04:01:00.998Z,6.36
2019-04-07T04:02:01.112Z,6.4
2019-04-07T04:03:00.911Z,6.38
2019-04-07T04:04:02.453Z,6.39
2019-04-07T04:05:01.097Z,6.36
2019-04-07T04:06:00.953Z,6.31
2019-04-07T04:07:37.060Z,6.36
2019-04-07T04:08:02.275Z,6.39
2019-04-07T04:09:02.322Z,6.36
2019-04-07T04:10:01.405Z,6.35
2019-04-07T04:11:02.853Z,6.35
2019-04-07T04:12:01.588Z,6.35
2019-04-07T04:13:01.203Z,6.39
2019-04-07T04:14:03.088Z,6.38
2019-04-07T04:15:03.796Z,6.38
2019-04-07T04:16:01.210Z,6.39
2019-04-07T04:17:02.323Z,6.41
2019-04-07T04:18:01.385Z,6.38
2019-04-07T04:19:00.929Z,6.4
2019-04-07T04:20:00.907Z,6.41
2019-04-07T04:21:01.691Z,6.43
2019-04-07T04:22:02.365Z,6.44
2019-04-07T04:23:00.995Z,6.44
2019-04-07T04:24:00.959Z,6.45
2019-04-07T04:25:01.495Z,6.44
2019-04-07T04:26:02.670Z,6.46
2019-04-07T04:27:01.381Z,6.44
2019-04-07T04:28:01.600Z,6.41
2019-04-07T04:29:04.178Z,6.47
2019-04-07T04:30:01.169Z,6.46
2019-04-07T04:31:00.996Z,6.43
2019-04-07T04:32:01.892Z,6.44
2019-04-07T04:33:02.457Z,6.47
2019-04-07T04:34:02.027Z,6.41
2019-04-07T04:35:01.245Z,6.4
2019-04-07T04:36:00.882Z,6.38
2019-04-07T04:37:02.001Z,6.36
2019-04-07T04:38:02.274Z,6.46
2019-04-07T04:39:00.967Z,6.44
2019-04-07T04:40:03.962Z,6.42
2019-04-07T04:41:03.165Z,6.44
2019-04-07T04:42:01.155Z,6.47
2019-04-07T04:43:03.000Z,6.44
2019-04-07T04:44:00.878Z,6.4
2019-04-07T04:45:02.787Z,6.38
2019-04-07T04:46:01.640Z,6.42
2019-04-07T04:47:03.024Z,6.44
2019-04-07T04:48:00.853Z,6.42
2019-04-07T04:49:00.882Z,6.44
2019-04-07T04:50:02.764Z,6.4
2019-04-07T04:51:00.900Z,6.5
2019-04-07T04:52:00.991Z,6.48
2019-04-07T04:53:00.818Z,6.44
2019-04-07T04:54:02.068Z,6.47
2019-04-07T04:55:02.297Z,6.51
2019-04-07T04:56:01.271Z,6.44
2019-04-07T04:57:09.598Z,6.43
2019-04-07T04:58:00.871Z,6.4
2019-04-07T04:59:01.090Z,6.45
2019-04-07T05:00:02.431Z,6.47
2019-04-07T05:01:04.607Z,6.4
2019-04-07T05:02:01.324Z,6.42
2019-04-07T05:03:01.198Z,6.46
2019-04-07T05:04:01.002Z,6.47
2019-04-07T05:05:04.122Z,6.41
2019-04-07T05:06:03.572Z,6.39
2019-04-07T05:07:01.665Z,6.37
2019-04-07T05:08:06.959Z,6.37
2019-04-07T05:09:02.281Z,6.44
2019-04-07T05:10:01.788Z,6.36
2019-04-07T05:11:01.909Z,6.35
2019-04-07T05:12:00.887Z,6.39
2019-04-07T05:13:01.620Z,6.44
2019-04-07T05:14:00.989Z,6.47
2019-04-07T05:15:01.919Z,6.42
2019-04-07T05:16:01.288Z,6.38
2019-04-07T05:17:01.308Z,6.42
2019-04-07T05:18:01.851Z,6.41
2019-04-07T05:19:00.904Z,6.43
2019-04-07T05:20:01.336Z,6.38
2019-04-07T05:21:00.915Z,6.4
2019-04-07T05:22:01.574Z,6.44
2019-04-07T05:23:01.140Z,6.44
2019-04-07T05:24:01.556Z,6.43
2019-04-07T05:25:01.078Z,6.42
2019-04-07T05:26:00.874Z,6.41
2019-04-07T05:27:01.168Z,6.43
2019-04-07T05:28:01.368Z,6.43
2019-04-07T05:29:01.553Z,6.45
2019-04-07T05:30:01.396Z,6.5
2019-04-07T05:31:00.823Z,6.52
2019-04-07T05:32:01.900Z,6.54
2019-04-07T05:33:01.093Z,6.53
2019-04-07T05:34:00.936Z,6.5
2019-04-07T05:35:01.217Z,6.52
2019-04-07T05:36:00.954Z,6.53
2019-04-07T05:37:02.389Z,6.59
2019-04-07T05:38:09.358Z,6.61
2019-04-07T05:39:01.147Z,6.6
2019-04-07T05:40:04.897Z,6.55
2019-04-07T05:41:00.803Z,6.62
2019-04-07T05:42:01.497Z,6.58
2019-04-07T05:43:02.152Z,6.59
2019-04-07T05:44:01.508Z,6.62
2019-04-07T05:45:00.904Z,6.63
2019-04-07T05:46:00.982Z,6.68
2019-04-07T05:47:01.582Z,6.68
2019-04-07T05:48:00.834Z,6.68
2019-04-07T05:49:00.941Z,6.61
2019-04-07T05:50:06.364Z,6.65
2019-04-07T05:51:01.325Z,6.65
2019-04-07T05:52:06.917Z,6.7
2019-04-07T05:53:00.743Z,6.71
2019-04-07T05:54:01.455Z,6.68
2019-04-07T05:55:01.479Z,6.75
2019-04-07T05:56:01.260Z,6.71
2019-04-07T05:57:02.790Z,6.7
2019-04-07T05:58:08.623Z,6.76
2019-04-07T05:59:01.992Z,6.69
2019-04-07T06:00:01.596Z,6.76
2019-04-07T06:01:00.755Z,6.77
2019-04-07T06:02:04.321Z,6.74
2019-04-07T06:03:09.544Z,6.76
2019-04-07T06:04:02.722Z,6.79
2019-04-07T06:05:01.407Z,6.82
2019-04-07T06:06:00.868Z,6.8
2019-04-07T06:07:00.844Z,6.83
2019-04-07T06:08:40.082Z,6.84
2019-04-07T06:09:00.835Z,6.82
2019-04-07T06:10:01.269Z,6.91
2019-04-07T06:11:02.642Z,6.86
2019-04-07T06:12:10.739Z,6.81
2019-04-07T06:13:00.748Z,6.89
2019-04-07T06:14:01.056Z,6.85
2019-04-07T06:15:00.758Z,6.97
2019-04-07T06:16:00.770Z,7.04
2019-04-07T06:17:01.095Z,7.04
2019-04-07T06:18:02.727Z,7.1
2019-04-07T06:19:09.072Z,7.1
2019-04-07T06:20:01.643Z,7.08
2019-04-07T06:21:01.145Z,7.04
2019-04-07T06:22:02.429Z,6.97
2019-04-07T06:23:00.716Z,6.96
2019-04-07T06:24:00.949Z,7
2019-04-07T06:25:07.089Z,6.99
2019-04-07T06:26:00.797Z,7.03
2019-04-07T06:27:01.024Z,7.09
2019-04-07T06:28:00.705Z,7.06
2019-04-07T06:29:01.815Z,7.02
2019-04-07T06:30:01.116Z,7.01
2019-04-07T06:31:03.395Z,7.05
2019-04-07T06:32:11.254Z,7.05
2019-04-07T06:33:01.782Z,7.04
2019-04-07T06:34:00.825Z,7.01
2019-04-07T06:35:02.749Z,7.05
2019-04-07T06:36:00.716Z,7.05
2019-04-07T06:37:00.779Z,7.1
2019-04-07T06:38:09.088Z,7.12
2019-04-07T06:39:01.642Z,7.11
2019-04-07T06:40:01.463Z,7.13
2019-04-07T06:41:03.529Z,7.12
2019-04-07T06:42:03.618Z,7.12
2019-04-07T06:43:07.535Z,7.14
2019-04-07T06:44:23.250Z,7.14
2019-04-07T06:45:01.952Z,7.18
2019-04-07T06:46:00.657Z,7.22
2019-04-07T06:47:04.805Z,7.21
2019-04-07T06:48:10.379Z,7.23
2019-04-07T06:49:01.667Z,7.22
2019-04-07T06:50:00.833Z,7.32
2019-04-07T06:51:03.804Z,7.35
2019-04-07T06:52:05.005Z,7.36
2019-04-07T06:53:00.793Z,7.33
2019-04-07T06:54:02.460Z,7.38
2019-04-07T06:55:00.677Z,7.41
2019-04-07T06:56:06.129Z,7.4
2019-04-07T06:57:07.387Z,7.42
2019-04-07T06:58:02.227Z,7.44
2019-04-07T06:59:00.832Z,7.43
2019-04-07T07:00:01.199Z,7.45
2019-04-07T07:01:03.564Z,7.44
2019-04-07T07:02:00.848Z,7.48
2019-04-07T07:03:04.548Z,7.43
2019-04-07T07:04:01.976Z,7.4
2019-04-07T07:05:00.662Z,7.42
2019-04-07T07:06:01.507Z,7.38
2019-04-07T07:07:01.185Z,7.38
2019-04-07T07:08:01.037Z,7.36
2019-04-07T07:09:01.215Z,7.39
2019-04-07T07:10:06.700Z,7.4
2019-04-07T07:11:01.141Z,7.4
2019-04-07T07:12:01.806Z,7.5
2019-04-07T07:13:33.267Z,7.58
2019-04-07T07:14:00.696Z,7.55
2019-04-07T07:15:04.809Z,7.6
2019-04-07T07:16:08.613Z,7.58
2019-04-07T07:17:00.647Z,7.54
2019-04-07T07:18:00.682Z,7.51
2019-04-07T07:19:02.600Z,7.54
2019-04-07T07:20:06.894Z,7.55
2019-04-07T07:21:05.202Z,7.54
2019-04-07T07:22:01.423Z,7.58
2019-04-07T07:23:00.897Z,7.57
2019-04-07T07:24:01.440Z,7.56
2019-04-07T07:25:01.580Z,7.56
2019-04-07T07:26:04.374Z,7.57
2019-04-07T07:27:12.384Z,7.58
2019-04-07T07:28:01.791Z,7.58
2019-04-07T07:29:01.062Z,7.57
2019-04-07T07:30:01.402Z,7.56
2019-04-07T07:31:01.105Z,7.53
2019-04-07T07:32:05.073Z,7.47
2019-04-07T07:33:00.866Z,7.47
2019-04-07T07:34:00.680Z,7.5
2019-04-07T07:35:00.650Z,7.53
2019-04-07T07:36:01.431Z,7.57
2019-04-07T07:37:00.678Z,7.6
2019-04-07T07:38:00.603Z,7.58
2019-04-07T07:39:14.542Z,7.57
2019-04-07T07:40:07.701Z,7.56
2019-04-07T07:41:04.924Z,7.6
2019-04-07T07:42:00.604Z,7.6
2019-04-07T07:43:00.671Z,7.59
2019-04-07T07:44:09.856Z,7.61
2019-04-07T07:45:01.640Z,7.67
2019-04-07T07:46:00.613Z,7.68
2019-04-07T07:47:00.689Z,7.67
2019-04-07T07:48:01.126Z,7.5
2019-04-07T07:49:02.347Z,7.6
2019-04-07T07:50:09.025Z,7.59
2019-04-07T07:51:02.326Z,7.56
2019-04-07T07:52:01.554Z,7.56
2019-04-07T07:53:01.537Z,7.61
2019-04-07T07:54:02.267Z,7.61
2019-04-07T07:55:04.034Z,7.52
2019-04-07T07:56:02.188Z,7.56
2019-04-07T07:57:02.547Z,7.5
2019-04-07T07:58:01.252Z,7.46
2019-04-07T07:59:04.666Z,7.27
2019-04-07T08:00:08.510Z,7.3
2019-04-07T08:01:01.608Z,7.35
2019-04-07T08:02:03.562Z,7.28
2019-04-07T08:03:00.830Z,7.69
2019-04-07T08:04:00.945Z,7.64
2019-04-07T08:05:00.789Z,7.6
2019-04-07T08:06:08.549Z,7.62
2019-04-07T08:07:02.836Z,7.51
2019-04-07T08:08:01.921Z,7.45
2019-04-07T08:09:25.775Z,7.42
2019-04-07T08:10:03.137Z,7.49
2019-04-07T08:11:02.953Z,7.43
2019-04-07T08:12:03.911Z,7.4
2019-04-07T08:13:09.129Z,7.3
2019-04-07T08:14:01.368Z,7.42
2019-04-07T08:15:00.594Z,7.33
2019-04-07T08:16:00.664Z,7.23
2019-04-07T08:17:04.242Z,7.27
2019-04-07T08:18:09.836Z,7.34
2019-04-07T08:19:01.656Z,7.49
2019-04-07T08:20:02.287Z,7.45
2019-04-07T08:21:00.563Z,7.52
2019-04-07T08:22:01.854Z,7.43
2019-04-07T08:23:00.848Z,7.42
2019-04-07T08:24:01.563Z,7.32
2019-04-07T08:25:02.531Z,7.31
2019-04-07T08:26:00.645Z,7.34
2019-04-07T08:27:00.560Z,7.62
2019-04-07T08:28:04.945Z,7.72
2019-04-07T08:29:12.707Z,7.54
2019-04-07T08:30:10.214Z,7.33
2019-04-07T08:31:01.002Z,7.67
2019-04-07T08:32:00.817Z,7.82
2019-04-07T08:33:03.694Z,7.8
2019-04-07T08:34:03.660Z,7.71
2019-04-07T08:35:06.956Z,7.65
2019-04-07T08:36:00.736Z,7.51
2019-04-07T08:37:01.488Z,7.63
2019-04-07T08:38:01.443Z,7.78
2019-04-07T08:39:00.988Z,7.88
2019-04-07T08:40:09.065Z,7.74
2019-04-07T08:41:11.493Z,7.57
2019-04-07T08:42:01.464Z,7.73
2019-04-07T08:43:01.319Z,7.93
2019-04-07T08:44:00.609Z,7.43
2019-04-07T08:45:03.581Z,7.68
2019-04-07T08:46:06.387Z,7.71
2019-04-07T08:47:02.679Z,7.67
2019-04-07T08:48:00.966Z,7.82
2019-04-07T08:49:00.572Z,8
2019-04-07T08:50:00.529Z,7.98
2019-04-07T08:51:01.252Z,7.72
2019-04-07T08:52:12.867Z,7.47
2019-04-07T08:53:00.506Z,7.71
2019-04-07T08:54:00.558Z,7.63
2019-04-07T08:55:00.538Z,7.81
2019-04-07T08:56:00.604Z,7.71
2019-04-07T08:57:00.753Z,7.74
2019-04-07T08:58:06.755Z,7.58
2019-04-07T08:59:00.490Z,7.75
2019-04-07T09:00:00.622Z,7.79
2019-04-07T09:01:00.507Z,7.73
2019-04-07T09:02:00.585Z,7.68
2019-04-07T09:03:17.071Z,7.6
2019-04-07T09:04:01.570Z,7.78
2019-04-07T09:05:02.811Z,7.85
2019-04-07T09:06:01.221Z,7.94
2019-04-07T09:07:05.277Z,7.96
2019-04-07T09:08:07.657Z,7.97
2019-04-07T09:09:00.642Z,8.11
2019-04-07T09:10:01.230Z,8.04
2019-04-07T09:11:00.598Z,7.93
2019-04-07T09:12:01.632Z,8.04
2019-04-07T09:13:10.483Z,8.03
2019-04-07T09:14:00.514Z,7.93
2019-04-07T09:15:11.790Z,7.95
2019-04-07T09:16:00.479Z,7.87
2019-04-07T09:17:00.532Z,7.91
2019-04-07T09:18:01.086Z,7.86
2019-04-07T09:19:09.613Z,8.2
2019-04-07T09:20:10.767Z,8.25
2019-04-07T09:21:00.990Z,7.91
2019-04-07T09:22:00.792Z,8.04
2019-04-07T09:23:00.719Z,8.26
2019-04-07T09:24:00.498Z,7.94
2019-04-07T09:25:10.823Z,7.9
2019-04-07T09:26:00.466Z,7.71
2019-04-07T09:27:01.266Z,7.48
2019-04-07T09:28:01.158Z,7.71
2019-04-07T09:29:00.956Z,7.84
2019-04-07T09:30:05.479Z,8.04
2019-04-07T09:31:04.767Z,7.58
2019-04-07T09:32:00.514Z,7.53
2019-04-07T09:33:01.488Z,7.76
2019-04-07T09:34:01.278Z,7.75
2019-04-07T09:35:00.824Z,7.63
2019-04-07T09:36:00.826Z,7.74
2019-04-07T09:37:00.596Z,7.89
2019-04-07T09:38:00.582Z,8.18
2019-04-07T09:39:04.306Z,8.28
2019-04-07T09:40:06.892Z,8.22
2019-04-07T09:41:00.727Z,8.11
2019-04-07T09:42:01.091Z,8.15
2019-04-07T09:43:01.479Z,8.28
2019-04-07T09:44:05.270Z,7.94
2019-04-07T09:45:00.603Z,7.85
2019-04-07T09:46:00.473Z,7.94
2019-04-07T09:47:00.968Z,8
2019-04-07T09:48:00.770Z,8.21
2019-04-07T09:49:02.177Z,8.5
2019-04-07T09:50:03.664Z,8.65
2019-04-07T09:51:08.711Z,8.65
2019-04-07T09:52:01.212Z,8.74
2019-04-07T09:53:01.349Z,8.83
2019-04-07T09:54:00.492Z,8.68
2019-04-07T09:55:01.566Z,8.59
2019-04-07T09:56:03.828Z,8.58
2019-04-07T09:57:07.506Z,8.52
2019-04-07T09:58:01.512Z,8.41
2019-04-07T09:59:00.462Z,8.44
2019-04-07T10:00:00.632Z,8.54
2019-04-07T10:01:00.451Z,8.76
2019-04-07T10:02:06.783Z,8.47
2019-04-07T10:03:16.252Z,8.61
2019-04-07T10:04:00.442Z,8.72
2019-04-07T10:05:00.448Z,8.71
2019-04-07T10:06:00.932Z,8.87
2019-04-07T10:07:03.813Z,8.96
2019-04-07T10:08:00.519Z,9.12
2019-04-07T10:09:02.121Z,8.97
2019-04-07T10:10:15.944Z,8.95
2019-04-07T10:11:00.840Z,8.84
2019-04-07T10:12:00.545Z,8.81
2019-04-07T10:13:00.866Z,8.7
2019-04-07T10:14:02.128Z,8.33
2019-04-07T10:15:00.441Z,8.24
2019-04-07T10:16:01.165Z,8.32
2019-04-07T10:17:01.295Z,8.2
2019-04-07T10:18:00.650Z,8.11
2019-04-07T10:19:00.854Z,8.28
2019-04-07T10:20:01.104Z,8.4
2019-04-07T10:21:01.703Z,8.7
2019-04-07T10:22:03.675Z,8.79
2019-04-07T10:23:01.768Z,8.76
2019-04-07T10:24:00.916Z,8.79
2019-04-07T10:25:00.505Z,8.69
2019-04-07T10:26:01.395Z,8.84
2019-04-07T10:27:01.526Z,8.95
2019-04-07T10:28:00.741Z,8.93
2019-04-07T10:29:00.741Z,8.94
2019-04-07T10:30:00.667Z,8.99
2019-04-07T10:31:00.372Z,8.94
2019-04-07T10:32:01.338Z,8.86
2019-04-07T10:33:03.018Z,8.99
2019-04-07T10:34:00.427Z,9.04
2019-04-07T10:35:01.238Z,9.02
2019-04-07T10:36:00.403Z,9.08
2019-04-07T10:37:05.167Z,9.13
2019-04-07T10:38:02.128Z,9.13
2019-04-07T10:39:00.956Z,9.05
2019-04-07T10:40:03.291Z,9.07
2019-04-07T10:41:02.040Z,8.98
2019-04-07T10:42:00.410Z,9.02
2019-04-07T10:43:01.525Z,9.18
2019-04-07T10:44:01.822Z,9.12
2019-04-07T10:45:00.740Z,9.07
2019-04-07T10:46:00.467Z,8.75
2019-04-07T10:47:00.577Z,8.8
2019-04-07T10:48:01.486Z,8.86
2019-04-07T10:49:00.484Z,8.83
2019-04-07T10:50:09.056Z,8.93
2019-04-07T10:51:00.403Z,9.06
2019-04-07T10:52:01.272Z,9.02
2019-04-07T10:53:00.470Z,9.09
2019-04-07T10:54:00.394Z,8.93
2019-04-07T10:55:01.309Z,9.07
2019-04-07T10:56:01.262Z,8.82
2019-04-07T10:57:01.147Z,8.83
2019-04-07T10:58:00.435Z,9.02
2019-04-07T10:59:00.423Z,9.08
2019-04-07T11:00:01.517Z,9.16
2019-04-07T11:01:01.066Z,9.14
2019-04-07T11:02:01.456Z,9.01
2019-04-07T11:03:00.996Z,9.02
2019-04-07T11:04:00.388Z,9.13
2019-04-07T11:05:00.781Z,9.09
2019-04-07T11:06:00.547Z,9.01
2019-04-07T11:07:00.359Z,9.12
2019-04-07T11:08:00.584Z,8.93
2019-04-07T11:09:00.380Z,9.11
2019-04-07T11:10:01.368Z,9.11
2019-04-07T11:11:00.368Z,9.25
2019-04-07T11:12:00.333Z,9.17
2019-04-07T11:13:01.850Z,9.17
2019-04-07T11:14:01.087Z,9.16
2019-04-07T11:15:01.117Z,9.25
2019-04-07T11:16:00.560Z,8.78
2019-04-07T11:17:02.581Z,8.74
2019-04-07T11:18:01.856Z,9.04
2019-04-07T11:19:00.367Z,9.05
2019-04-07T11:20:00.366Z,9.05
2019-04-07T11:21:02.378Z,9.12
2019-04-07T11:22:01.301Z,9.21
2019-04-07T11:23:02.934Z,9.32
2019-04-07T11:24:01.383Z,9.15
2019-04-07T11:25:01.255Z,9.02
2019-04-07T11:26:00.739Z,9.09
2019-04-07T11:27:00.374Z,9.27
2019-04-07T11:28:00.330Z,9.24
2019-04-07T11:29:00.328Z,9.25
2019-04-07T11:30:00.509Z,9.2
2019-04-07T11:31:02.284Z,8.99
2019-04-07T11:32:00.529Z,9.19
2019-04-07T11:33:01.968Z,9.03
2019-04-07T11:34:01.048Z,9.29
2019-04-07T11:35:00.343Z,9.02
2019-04-07T11:36:05.997Z,8.99
2019-04-07T11:37:00.755Z,9.34
2019-04-07T11:38:00.493Z,9.14
2019-04-07T11:39:00.689Z,9.24
2019-04-07T11:40:01.945Z,8.83
2019-04-07T11:41:00.419Z,8.99
2019-04-07T11:42:01.214Z,8.78
2019-04-07T11:43:00.672Z,8.78
2019-04-07T11:44:02.061Z,8.83
2019-04-07T11:45:00.359Z,9.02
2019-04-07T11:46:04.378Z,9.14
2019-04-07T11:47:02.273Z,8.87
2019-04-07T11:48:00.310Z,9
2019-04-07T11:49:00.992Z,9.1
2019-04-07T11:50:00.458Z,8.74
2019-04-07T11:51:00.286Z,8.83
2019-04-07T11:52:00.359Z,8.99
2019-04-07T11:53:01.614Z,8.83
2019-04-07T11:54:01.777Z,8.49
2019-04-07T11:55:02.386Z,8.45
2019-04-07T11:56:11.707Z,8.33
2019-04-07T11:57:01.029Z,8.54
2019-04-07T11:58:33.173Z,8.74
2019-04-07T11:59:01.416Z,8.48
2019-04-07T12:00:02.522Z,8.63
2019-04-07T12:01:00.349Z,8.88
2019-04-07T12:02:03.736Z,8.72
2019-04-07T12:03:00.973Z,8.78
2019-04-07T12:04:02.665Z,8.08
2019-04-07T12:05:00.400Z,8.49
2019-04-07T12:06:02.622Z,8.27
2019-04-07T12:07:00.367Z,8.08
2019-04-07T12:08:02.047Z,8.22
2019-04-07T12:09:00.469Z,8
2019-04-07T12:10:00.342Z,8.14
2019-04-07T12:11:06.769Z,8.33
2019-04-07T12:12:00.366Z,8.21
2019-04-07T12:13:00.511Z,8.02
2019-04-07T12:14:01.205Z,8.07
2019-04-07T12:15:00.366Z,8.17
2019-04-07T12:16:02.209Z,8.22
2019-04-07T12:17:12.744Z,8.21
2019-04-07T12:18:00.595Z,8.24
2019-04-07T12:19:00.537Z,8.02
2019-04-07T12:20:00.528Z,8.59
2019-04-07T12:21:08.837Z,8.83
2019-04-07T12:22:02.403Z,8.83
2019-04-07T12:23:00.538Z,9.25
2019-04-07T12:24:01.636Z,9.12
2019-04-07T12:25:06.894Z,8.98
2019-04-07T12:26:07.542Z,9.2
2019-04-07T12:27:02.129Z,9.28
2019-04-07T12:28:00.303Z,8.93
2019-04-07T12:29:01.635Z,9
2019-04-07T12:30:02.545Z,9.2
2019-04-07T12:31:00.271Z,8.96
2019-04-07T12:32:01.770Z,8.78
2019-04-07T12:33:00.348Z,8.97
2019-04-07T12:34:00.342Z,9.01
2019-04-07T12:35:01.251Z,8.53
2019-04-07T12:36:00.315Z,8.83
2019-04-07T12:37:08.041Z,8.55
2019-04-07T12:38:00.529Z,8.88
2019-04-07T12:39:00.281Z,8.97
2019-04-07T12:40:01.479Z,9.08
2019-04-07T12:41:23.625Z,8.96
2019-04-07T12:42:08.856Z,8.94
2019-04-07T12:43:00.562Z,9.03
2019-04-07T12:44:01.759Z,8.88
2019-04-07T12:45:00.328Z,9.02
2019-04-07T12:46:01.331Z,9.13
2019-04-07T12:47:00.297Z,8.93
2019-04-07T12:48:03.134Z,8.83
2019-04-07T12:49:00.369Z,8.57
2019-04-07T12:50:00.319Z,8.65
2019-04-07T12:51:01.746Z,8.41
2019-04-07T12:52:00.379Z,8.72
2019-04-07T12:53:07.955Z,8.48
2019-04-07T12:54:00.457Z,8.59
2019-04-07T12:55:01.673Z,8.41
2019-04-07T12:56:03.259Z,8.53
2019-04-07T12:57:09.809Z,8.78
2019-04-07T12:58:01.813Z,8.7
2019-04-07T12:59:01.552Z,8.26
2019-04-07T13:00:00.293Z,8.05
2019-04-07T13:01:21.058Z,8.47
2019-04-07T13:02:09.355Z,8.4
2019-04-07T13:03:00.277Z,8.38
2019-04-07T13:04:00.366Z,8.78
2019-04-07T13:05:08.788Z,8.69
2019-04-07T13:06:02.802Z,8.8
2019-04-07T13:07:00.238Z,8.56
2019-04-07T13:08:00.634Z,8.92
2019-04-07T13:09:01.129Z,8.84
2019-04-07T13:10:07.373Z,9.05
2019-04-07T13:11:15.863Z,9.02
2019-04-07T13:12:04.410Z,8.84
2019-04-07T13:13:00.253Z,8.5
2019-04-07T13:14:10.168Z,8.36
2019-04-07T13:15:01.261Z,7.99
2019-04-07T13:16:01.600Z,7.94
2019-04-07T13:17:02.952Z,8.16
2019-04-07T13:18:11.982Z,8.43
2019-04-07T13:19:13.078Z,8.69
2019-04-07T13:20:02.435Z,8.64
2019-04-07T13:21:05.501Z,8.93
2019-04-07T13:22:04.428Z,8.82